Time;durP1;ratioP1;P1;durP2;ratioP2;P2;SDS_P1;SDS_P2;PMS_P1;PMS_P2;Temp;Humidity;BMP_temperature;BMP_pressure;BME280_temperature;BME280_humidity;BME280_pressure;Samples;Min_cycle;Max_cycle;Signal;HPM_P1;HPM_P2
2021/12/21 00:00:18;;;;;;;0.43;0.43;;;;;;;-143.85;100.00;70650.75;5112632;28;20027;-81
2021/12/21 00:02:47;;;;;;;0.30;0.30;;;;;;;-143.85;100.00;70650.75;5113355;28;20372;-79
2021/12/21 00:05:18;;;;;;;0.40;0.40;;;;;;;-143.85;100.00;70650.75;5112760;28;20084;-79
2021/12/21 00:07:45;;;;;;;0.30;0.30;;;;;;;-143.85;100.00;70650.75;5113407;28;20130;-79
2021/12/21 00:10:12;;;;;;;0.30;0.30;;;;;;;-143.85;100.00;70650.75;5112389;28;20506;-78
2021/12/21 00:12:46;;;;;;;1.25;1.13;;;;;;;-143.85;100.00;70650.75;5112501;28;20028;-79
2021/12/21 00:15:25;;;;;;;0.30;0.30;;;;;;;-143.85;100.00;70650.75;5113050;28;20030;-82
2021/12/21 00:18:06;;;;;;;0.30;0.30;;;;;;;-143.85;100.00;70650.75;5113316;28;20027;-79
2021/12/21 00:20:50;;;;;;;0.30;0.30;;;;;;;-143.85;100.00;70650.75;5112606;28;20122;-78
2021/12/21 00:23:31;;;;;;;0.20;0.20;;;;;;;-143.85;100.00;70650.75;5112373;28;20066;-80
2021/12/21 00:26:12;;;;;;;0.30;0.30;;;;;;;-143.85;100.00;70650.75;5113701;28;20031;-79
2021/12/21 00:28:50;;;;;;;0.20;0.20;;;;;;;-143.85;100.00;70650.75;5112377;28;20068;-79
2021/12/21 00:31:15;;;;;;;0.27;0.27;;;;;;;-143.85;100.00;70650.75;5112904;28;20122;-79
2021/12/21 00:33:45;;;;;;;0.20;0.20;;;;;;;-143.85;100.00;70650.75;5112481;28;20561;-78
2021/12/21 00:36:11;;;;;;;0.30;0.30;;;;;;;-143.85;100.00;70650.75;5111943;28;20024;-79
2021/12/21 00:38:37;;;;;;;0.20;0.20;;;;;;;-143.85;100.00;70650.75;5112314;28;20028;-84
2021/12/21 00:41:03;;;;;;;0.30;0.30;;;;;;;-143.85;100.00;70650.75;5112110;28;20103;-83
2021/12/21 00:43:28;;;;;;;0.20;0.20;;;;;;;-143.85;100.00;70650.75;5112121;28;20398;-81
2021/12/21 00:45:53;;;;;;;0.63;0.63;;;;;;;-143.85;100.00;70650.75;5112149;28;20035;-82
2021/12/21 00:48:21;;;;;;;0.30;0.30;;;;;;;-143.85;100.00;70650.75;5111557;28;20473;-79
2021/12/21 00:50:46;;;;;;;0.20;0.20;;;;;;;-143.85;100.00;70650.75;5112056;28;20039;-78
2021/12/21 00:53:12;;;;;;;0.30;0.30;;;;;;;-143.85;100.00;70650.75;5111870;28;20027;-80
2021/12/21 00:55:38;;;;;;;0.30;0.30;;;;;;;-143.85;100.00;70650.75;5111797;28;20503;-80
2021/12/21 00:58:04;;;;;;;0.30;0.30;;;;;;;-143.85;100.00;70650.75;5111812;28;20030;-82
2021/12/21 01:00:29;;;;;;;0.28;0.28;;;;;;;-143.85;100.00;70650.75;5112071;28;20110;-80
2021/12/21 01:02:57;;;;;;;0.20;0.20;;;;;;;-143.85;100.00;70650.75;5112112;28;20109;-80
2021/12/21 01:05:31;;;;;;;0.22;0.22;;;;;;;-143.85;100.00;70650.75;5112420;28;20034;-82
2021/12/21 01:07:59;;;;;;;0.45;0.40;;;;;;;-143.85;100.00;70650.75;5112191;28;20499;-80
2021/12/21 01:18:06;;;;;;;0.63;0.63;;;;;;;-143.85;100.00;70650.75;5112986;28;20092;-81
2021/12/21 01:20:37;;;;;;;1.08;0.88;;;;;;;-143.85;100.00;70650.75;5113247;28;20062;-82
2021/12/21 01:25:51;;;;;;;0.20;0.20;;;;;;;-143.85;100.00;70650.75;5113111;28;20118;-79
2021/12/21 01:29:01;;;;;;;0.20;0.20;;;;;;;-143.85;100.00;70650.75;5111925;28;20028;-83
2021/12/21 01:33:54;;;;;;;0.20;0.20;;;;;;;-143.85;100.00;70650.75;5112837;28;20399;-81
2021/12/21 01:36:28;;;;;;;0.20;0.20;;;;;;;-143.85;100.00;70650.75;5112115;28;20031;-82
2021/12/21 01:41:36;;;;;;;0.20;0.20;;;;;;;-143.85;100.00;70650.75;5113065;28;20024;-82
2021/12/21 01:51:59;;;;;;;0.30;0.30;;;;;;;-143.85;100.00;70650.75;5117407;28;20128;-80
2021/12/21 01:54:26;;;;;;;0.47;0.47;;;;;;;-143.85;100.00;70650.75;5115384;28;20051;-83
2021/12/21 01:56:53;;;;;;;0.30;0.30;;;;;;;-143.85;100.00;70650.75;5115201;28;20103;-82
2021/12/21 01:59:19;;;;;;;0.20;0.20;;;;;;;-143.85;100.00;70650.75;5115709;28;20126;-81
2021/12/21 02:01:45;;;;;;;0.35;0.35;;;;;;;-143.85;100.00;70650.75;5115459;28;20488;-81
2021/12/21 02:04:15;;;;;;;0.20;0.20;;;;;;;-143.85;100.00;70650.75;5115362;28;20023;-81
2021/12/21 02:06:41;;;;;;;0.22;0.22;;;;;;;-143.85;100.00;70650.75;5116757;28;20437;-79
2021/12/21 02:09:07;;;;;;;0.20;0.20;;;;;;;-143.85;100.00;70650.75;5115150;28;20027;-81
2021/12/21 02:11:33;;;;;;;0.30;0.30;;;;;;;-143.85;100.00;70650.75;5115111;28;20131;-81
2021/12/21 02:13:59;;;;;;;0.20;0.20;;;;;;;-143.85;100.00;70650.75;5114963;28;20032;-82
2021/12/21 02:16:32;;;;;;;0.30;0.30;;;;;;;-143.85;100.00;70650.75;5114848;28;20023;-83
2021/12/21 02:21:31;;;;;;;0.38;0.38;;;;;;;-143.85;100.00;70650.75;5116715;28;20034;-79
2021/12/21 02:24:02;;;;;;;0.20;0.20;;;;;;;-143.85;100.00;70650.75;5115158;28;20044;-79
2021/12/21 02:26:39;;;;;;;0.20;0.20;;;;;;;-143.85;100.00;70650.75;5115065;28;20032;-80
2021/12/21 02:29:11;;;;;;;0.20;0.20;;;;;;;-143.85;100.00;70650.75;5114895;28;20484;-81
2021/12/21 02:31:38;;;;;;;0.30;0.30;;;;;;;-143.85;100.00;70650.75;5114621;28;20122;-83
2021/12/21 02:34:05;;;;;;;0.40;0.40;;;;;;;-143.85;100.00;70650.75;5114947;28;20031;-82
2021/12/21 02:36:31;;;;;;;0.43;0.43;;;;;;;-143.85;100.00;70650.75;5114601;28;20525;-83
2021/12/21 02:38:56;;;;;;;0.43;0.43;;;;;;;-143.85;100.00;70650.75;5114415;28;20023;-83
2021/12/21 02:41:22;;;;;;;0.35;0.35;;;;;;;-143.85;100.00;70650.75;5114621;28;20020;-82
2021/12/21 02:43:48;;;;;;;0.75;0.75;;;;;;;-143.85;100.00;70650.75;5114833;28;20110;-84
2021/12/21 02:46:13;;;;;;;0.20;0.20;;;;;;;-143.85;100.00;70650.75;5114472;28;20031;-84
2021/12/21 02:48:39;;;;;;;0.40;0.40;;;;;;;-143.85;100.00;70650.75;5114427;28;20438;-83
2021/12/21 02:51:05;;;;;;;0.47;0.47;;;;;;;-143.85;100.00;70650.75;5114217;28;20107;-79
2021/12/21 02:53:30;;;;;;;0.20;0.20;;;;;;;-143.85;100.00;70650.75;5114263;28;20130;-83
2021/12/21 02:55:56;;;;;;;0.20;0.20;;;;;;;-143.85;100.00;70650.75;5114165;28;20554;-83
2021/12/21 02:58:21;;;;;;;0.55;0.55;;;;;;;-143.85;100.00;70650.75;5113109;28;20027;-83
2021/12/21 03:00:47;;;;;;;0.20;0.20;;;;;;;-143.85;100.00;70650.75;5114446;28;20055;-80
2021/12/21 03:03:14;;;;;;;0.20;0.20;;;;;;;-143.85;100.00;70650.75;5114079;28;20031;-82
2021/12/21 03:05:53;;;;;;;0.20;0.20;;;;;;;-143.85;100.00;70650.75;5114269;28;20524;-82
2021/12/21 03:08:23;;;;;;;0.20;0.20;;;;;;;-143.85;100.00;70650.75;5114433;28;20479;-84
2021/12/21 03:16:17;;;;;;;0.20;0.20;;;;;;;-143.85;100.00;70650.75;5115887;28;20173;-82
2021/12/21 03:18:43;;;;;;;0.25;0.25;;;;;;;-143.85;100.00;70650.75;5113828;28;20055;-82
2021/12/21 03:21:09;;;;;;;0.47;0.47;;;;;;;-143.85;100.00;70650.75;5113761;28;20116;-81
2021/12/21 03:23:34;;;;;;;0.20;0.20;;;;;;;-143.85;100.00;70650.75;5115086;28;20031;-83
2021/12/21 03:26:00;;;;;;;0.20;0.20;;;;;;;-143.85;100.00;70650.75;5113580;28;20024;-83
2021/12/21 03:28:25;;;;;;;0.20;0.20;;;;;;;-143.85;100.00;70650.75;5113754;28;20035;-81
2021/12/21 03:30:51;;;;;;;0.20;0.20;;;;;;;-143.85;100.00;70650.75;5113734;28;20457;-83
2021/12/21 03:33:18;;;;;;;0.40;0.40;;;;;;;-143.85;100.00;70650.75;5113579;28;20031;-83
2021/12/21 03:35:43;;;;;;;0.88;0.82;;;;;;;-143.85;100.00;70650.75;5113605;28;20050;-82
2021/12/21 03:38:09;;;;;;;0.30;0.30;;;;;;;-143.85;100.00;70650.75;5113871;28;20075;-82
2021/12/21 03:40:35;;;;;;;0.25;0.25;;;;;;;-143.85;100.00;70650.75;5113227;28;20024;-82
2021/12/21 03:43:01;;;;;;;0.20;0.20;;;;;;;-143.85;100.00;70650.75;5113764;28;20028;-82
2021/12/21 03:45:31;;;;;;;0.20;0.20;;;;;;;-143.85;100.00;70650.75;5113040;28;20471;-83
2021/12/21 03:47:57;;;;;;;3.00;0.50;;;;;;;-143.85;100.00;70650.75;5124172;27;20129;-83
2021/12/21 03:50:22;;;;;;;0.20;0.20;;;;;;;-143.85;100.00;70650.75;5117102;27;20497;-83
2021/12/21 03:52:48;;;;;;;0.30;0.30;;;;;;;-143.85;100.00;70650.75;5117173;27;20027;-84
2021/12/21 03:55:14;;;;;;;0.30;0.30;;;;;;;-143.85;100.00;70650.75;5117065;27;20023;-83
2021/12/21 03:57:41;;;;;;;0.20;0.20;;;;;;;-143.85;100.00;70650.75;5117155;27;20192;-84
2021/12/21 04:00:11;;;;;;;0.40;0.40;;;;;;;-143.85;100.00;70650.75;5116279;27;20035;-83
2021/12/21 04:02:37;;;;;;;0.20;0.20;;;;;;;-143.85;100.00;70650.75;5116557;27;20031;-83
2021/12/21 04:05:03;;;;;;;0.25;0.25;;;;;;;-143.85;100.00;70650.75;5116863;27;20372;-82
2021/12/21 04:07:28;;;;;;;0.20;0.20;;;;;;;-143.85;100.00;70650.75;5116568;27;20033;-84
2021/12/21 04:09:55;;;;;;;0.20;0.20;;;;;;;-143.85;100.00;70650.75;5116997;27;20113;-84
2021/12/21 04:12:21;;;;;;;0.50;0.50;;;;;;;-143.85;100.00;70650.75;5116582;27;20031;-83
2021/12/21 04:14:47;;;;;;;0.68;0.65;;;;;;;-143.85;100.00;70650.75;5116044;27;20042;-82
2021/12/21 04:17:21;;;;;;;0.20;0.20;;;;;;;-143.85;100.00;70650.75;5115999;27;20031;-83
2021/12/21 04:19:48;;;;;;;0.20;0.20;;;;;;;-143.85;100.00;70650.75;5116641;27;20031;-83
2021/12/21 04:22:15;;;;;;;0.20;0.20;;;;;;;-143.85;100.00;70650.75;5116003;27;20065;-83
2021/12/21 04:24:41;;;;;;;0.40;0.40;;;;;;;-143.85;100.00;70650.75;5116041;27;20092;-82
2021/12/21 04:27:07;;;;;;;0.20;0.20;;;;;;;-143.85;100.00;70650.75;5115917;27;20475;-82
2021/12/21 04:29:33;;;;;;;2.08;1.52;;;;;;;-143.85;100.00;70650.75;5116373;27;20077;-83
2021/12/21 04:31:59;;;;;;;0.20;0.20;;;;;;;-143.85;100.00;70650.75;5116346;27;20036;-79
2021/12/21 04:34:24;;;;;;;0.20;0.20;;;;;;;-143.85;100.00;70650.75;5116887;27;20031;-83
2021/12/21 04:36:50;;;;;;;0.30;0.30;;;;;;;-143.85;100.00;70650.75;5116166;27;20026;-82
2021/12/21 04:39:26;;;;;;;0.30;0.30;;;;;;;-143.85;100.00;70650.75;5115939;27;20109;-82
2021/12/21 04:41:52;;;;;;;0.30;0.30;;;;;;;-143.85;100.00;70650.75;5134717;27;20080;-82
2021/12/21 04:44:17;;;;;;;0.55;0.55;;;;;;;-143.85;100.00;70650.75;5115804;27;20023;-83
2021/12/21 04:46:43;;;;;;;0.20;0.20;;;;;;;-143.85;100.00;70650.75;5116702;27;20058;-83
2021/12/21 04:49:09;;;;;;;5.97;2.83;;;;;;;-143.85;100.00;70650.75;5115749;27;20543;-84
2021/12/21 04:51:34;;;;;;;2.63;2.40;;;;;;;-143.85;100.00;70650.75;5115213;27;20025;-84
2021/12/21 04:54:00;;;;;;;0.90;0.90;;;;;;;-143.85;100.00;70650.75;5116196;27;20034;-84
2021/12/21 04:56:25;;;;;;;0.95;0.85;;;;;;;-143.85;100.00;70650.75;5115419;27;20025;-84
2021/12/21 04:58:51;;;;;;;0.30;0.30;;;;;;;-143.85;100.00;70650.75;5116356;27;20031;-84
2021/12/21 05:01:16;;;;;;;0.20;0.20;;;;;;;-143.85;100.00;70650.75;5134404;27;20059;-83
2021/12/21 05:03:42;;;;;;;0.73;0.73;;;;;;;-143.85;100.00;70650.75;5115414;27;20035;-83
2021/12/21 05:06:07;;;;;;;0.20;0.20;;;;;;;-143.85;100.00;70650.75;5115730;27;20029;-83
2021/12/21 05:08:37;;;;;;;0.50;0.50;;;;;;;-143.85;100.00;70650.75;5115719;28;20027;-84
2021/12/21 05:11:05;;;;;;;0.30;0.30;;;;;;;-143.85;100.00;70650.75;5115801;28;20054;-80
2021/12/21 05:13:40;;;;;;;0.65;0.63;;;;;;;-143.85;100.00;70650.75;5115602;27;20038;-79
2021/12/21 05:16:05;;;;;;;0.20;0.20;;;;;;;-143.85;100.00;70650.75;5115889;28;20080;-82
2021/12/21 05:18:35;;;;;;;0.80;0.77;;;;;;;-143.85;100.00;70650.75;5115222;28;20504;-85
2021/12/21 05:21:01;;;;;;;0.20;0.20;;;;;;;-143.85;100.00;70650.75;5114849;28;20026;-81
2021/12/21 05:23:27;;;;;;;0.50;0.50;;;;;;;-143.85;100.00;70650.75;5120059;27;20035;-80
2021/12/21 05:25:52;;;;;;;0.20;0.20;;;;;;;-143.85;100.00;70650.75;5119252;27;20020;-82
2021/12/21 05:28:18;;;;;;;0.60;0.60;;;;;;;-143.85;100.00;70650.75;5119729;27;20023;-84
2021/12/21 05:30:44;;;;;;;0.20;0.20;;;;;;;-143.85;100.00;70650.75;5119423;27;20034;-83
2021/12/21 05:33:10;;;;;;;1.88;1.42;;;;;;;-143.85;100.00;70650.75;5119446;27;20035;-83
2021/12/21 05:35:36;;;;;;;0.30;0.30;;;;;;;-143.85;100.00;70650.75;5120110;27;20034;-81
2021/12/21 05:38:06;;;;;;;0.20;0.20;;;;;;;-143.85;100.00;70650.75;5119562;27;20043;-83
2021/12/21 05:40:36;;;;;;;0.20;0.20;;;;;;;-143.85;100.00;70650.75;5120222;27;20023;-83
2021/12/21 05:43:03;;;;;;;0.20;0.20;;;;;;;-143.85;100.00;70650.75;5119971;27;20035;-84
2021/12/21 05:45:28;;;;;;;0.20;0.20;;;;;;;-143.85;100.00;70650.75;5118826;27;20029;-83
2021/12/21 05:47:54;;;;;;;0.28;0.28;;;;;;;-143.85;100.00;70650.75;5118897;27;20410;-81
2021/12/21 05:50:20;;;;;;;0.65;0.65;;;;;;;-143.85;100.00;70650.75;5137307;27;20061;-83
2021/12/21 05:52:47;;;;;;;0.20;0.20;;;;;;;-143.85;100.00;70650.75;5119170;27;20027;-83
2021/12/21 05:55:14;;;;;;;0.20;0.20;;;;;;;-143.85;100.00;70650.75;5119324;27;20110;-83
2021/12/21 05:57:40;;;;;;;0.28;0.28;;;;;;;-143.85;100.00;70650.75;5119528;27;20063;-84
2021/12/21 06:00:09;;;;;;;0.20;0.20;;;;;;;-143.85;100.00;70650.75;5118885;27;20061;-81
2021/12/21 06:02:34;;;;;;;1.35;1.33;;;;;;;-143.85;100.00;70650.75;5118667;27;20023;-82
2021/12/21 06:05:00;;;;;;;0.20;0.20;;;;;;;-143.85;100.00;70650.75;5118407;27;20482;-84
2021/12/21 06:07:26;;;;;;;0.20;0.20;;;;;;;-143.85;100.00;70650.75;5119726;27;20029;-84
2021/12/21 06:09:51;;;;;;;0.20;0.20;;;;;;;-143.85;100.00;70650.75;5118978;27;20027;-83
2021/12/21 06:12:34;;;;;;;0.30;0.30;;;;;;;-143.85;100.00;70650.75;5119010;27;20042;-83
2021/12/21 06:26:25;;;;;;;0.22;0.22;;;;;;;-143.85;100.00;70650.75;5136983;27;20454;-84
2021/12/21 06:28:51;;;;;;;0.30;0.30;;;;;;;-143.85;100.00;70650.75;5118566;27;20038;-80
2021/12/21 06:31:17;;;;;;;0.30;0.30;;;;;;;-143.85;100.00;70650.75;5118532;27;20027;-81
2021/12/21 06:33:43;;;;;;;0.30;0.30;;;;;;;-143.85;100.00;70650.75;5118396;27;20402;-82
2021/12/21 06:36:09;;;;;;;0.30;0.30;;;;;;;-143.85;100.00;70650.75;5117968;27;20027;-83
2021/12/21 06:38:35;;;;;;;0.20;0.20;;;;;;;-143.85;100.00;70650.75;5117916;27;20023;-84
2021/12/21 06:41:00;;;;;;;0.20;0.20;;;;;;;-143.85;100.00;70650.75;5117784;27;20019;-83
2021/12/21 06:43:26;;;;;;;0.40;0.40;;;;;;;-143.85;100.00;70650.75;5117894;27;20031;-83
2021/12/21 06:46:01;;;;;;;0.30;0.30;;;;;;;-143.85;100.00;70650.75;5117841;27;20042;-81
2021/12/21 06:53:38;;;;;;;0.50;0.50;;;;;;;-143.85;100.00;70650.75;5136345;27;20454;-82
2021/12/21 06:56:05;;;;;;;0.27;0.27;;;;;;;-143.85;100.00;70650.75;5117584;27;20110;-82
2021/12/21 06:58:30;;;;;;;0.20;0.20;;;;;;;-143.85;100.00;70650.75;5117692;27;20265;-84
2021/12/21 07:00:57;;;;;;;0.28;0.28;;;;;;;-143.85;100.00;70650.75;5117802;27;20084;-83
2021/12/21 07:03:23;;;;;;;0.20;0.20;;;;;;;-143.85;100.00;70650.75;5118114;27;20065;-85
2021/12/21 07:05:50;;;;;;;0.40;0.40;;;;;;;-143.85;100.00;70650.75;5117642;27;20027;-86
2021/12/21 07:08:20;;;;;;;0.20;0.20;;;;;;;-143.85;100.00;70650.75;5117785;27;20051;-85
2021/12/21 07:10:54;;;;;;;0.20;0.20;;;;;;;-143.85;100.00;70650.75;5117930;27;20057;-85
2021/12/21 07:18:48;;;;;;;0.20;0.20;;;;;;;-143.85;100.00;70650.75;5138010;27;20079;-85
2021/12/21 07:21:13;;;;;;;0.20;0.20;;;;;;;-143.85;100.00;70650.75;5118694;27;20118;-84
2021/12/21 07:23:39;;;;;;;1.90;1.75;;;;;;;-143.85;100.00;70650.75;5127341;27;20034;-89
2021/12/21 07:26:06;;;;;;;0.20;0.20;;;;;;;-143.85;100.00;70650.75;5120669;27;20025;-86
2021/12/21 07:28:32;;;;;;;0.20;0.20;;;;;;;-143.85;100.00;70650.75;5117266;27;20117;-85
2021/12/21 07:30:58;;;;;;;0.20;0.20;;;;;;;-143.85;100.00;70650.75;5117487;27;20443;-84
2021/12/21 07:33:23;;;;;;;0.20;0.20;;;;;;;-143.85;100.00;70650.75;5118204;27;20034;-85
2021/12/21 07:35:49;;;;;;;0.20;0.20;;;;;;;-143.85;100.00;70650.75;5117478;27;20023;-84
2021/12/21 07:38:15;;;;;;;0.20;0.20;;;;;;;-143.85;100.00;70650.75;5117679;27;20062;-86
2021/12/21 07:40:40;;;;;;;0.52;0.52;;;;;;;-143.85;100.00;70650.75;5117417;27;20023;-85
2021/12/21 07:43:06;;;;;;;0.20;0.20;;;;;;;-143.85;100.00;70650.75;5116775;27;20648;-86
2021/12/21 07:45:32;;;;;;;0.20;0.20;;;;;;;-143.85;100.00;70650.75;5116479;27;20517;-85
2021/12/21 07:47:58;;;;;;;0.43;0.43;;;;;;;-143.85;100.00;70650.75;5113273;28;20052;-85
2021/12/21 07:50:24;;;;;;;0.38;0.38;;;;;;;-143.85;100.00;70650.75;5113767;28;20020;-85
2021/12/21 07:52:51;;;;;;;0.20;0.20;;;;;;;-143.85;100.00;70650.75;5114174;28;20038;-85
2021/12/21 07:55:17;;;;;;;0.70;0.70;;;;;;;-143.85;100.00;70650.75;5113738;28;20027;-86
2021/12/21 07:57:43;;;;;;;0.30;0.30;;;;;;;-143.85;100.00;70650.75;5114248;28;20034;-85
2021/12/21 08:00:11;;;;;;;0.50;0.50;;;;;;;-143.85;100.00;70650.75;5113738;28;20027;-86
2021/12/21 08:02:39;;;;;;;0.20;0.20;;;;;;;-143.85;100.00;70650.75;5114357;28;20024;-84
2021/12/21 08:05:07;;;;;;;0.60;0.60;;;;;;;-143.85;100.00;70650.75;5113802;28;20027;-83
2021/12/21 08:07:37;;;;;;;0.20;0.20;;;;;;;-143.85;100.00;70650.75;5113895;28;20487;-86
2021/12/21 08:10:17;;;;;;;0.20;0.20;;;;;;;-143.85;100.00;70650.75;5113464;28;20054;-85
2021/12/21 08:12:44;;;;;;;0.20;0.20;;;;;;;-143.85;100.00;70650.75;5114104;28;20476;-86
2021/12/21 08:15:09;;;;;;;0.20;0.20;;;;;;;-143.85;100.00;70650.75;5113640;28;20028;-86
2021/12/21 08:17:35;;;;;;;0.28;0.28;;;;;;;-143.85;100.00;70650.75;5113471;28;20023;-85
2021/12/21 08:20:00;;;;;;;0.43;0.43;;;;;;;-143.85;100.00;70650.75;5113217;28;20032;-85
2021/12/21 08:22:26;;;;;;;0.32;0.32;;;;;;;-143.85;100.00;70650.75;5113137;28;20023;-87
2021/12/21 08:24:51;;;;;;;0.30;0.30;;;;;;;-143.85;100.00;70650.75;5113468;28;20055;-84
2021/12/21 08:27:17;;;;;;;0.20;0.20;;;;;;;-143.85;100.00;70650.75;5113176;28;20038;-86
2021/12/21 08:29:42;;;;;;;0.35;0.35;;;;;;;-143.85;100.00;70650.75;5113128;28;20078;-86
2021/12/21 08:32:08;;;;;;;0.32;0.32;;;;;;;-143.85;100.00;70650.75;5147736;27;20078;-85
2021/12/21 08:34:34;;;;;;;1.08;1.08;;;;;;;-143.85;100.00;70650.75;5112965;28;20038;-85
2021/12/21 08:36:59;;;;;;;0.20;0.20;;;;;;;-143.85;100.00;70650.75;5112624;28;20081;-84
2021/12/21 08:39:27;;;;;;;1.08;0.85;;;;;;;-143.85;100.00;70650.75;5112613;28;20024;-84
2021/12/21 08:41:57;;;;;;;0.20;0.20;;;;;;;-143.85;100.00;70650.75;5112953;28;20035;-85
2021/12/21 08:44:26;;;;;;;0.30;0.30;;;;;;;-143.85;100.00;70650.75;5113004;28;20038;-85
2021/12/21 08:46:53;;;;;;;0.20;0.20;;;;;;;-143.85;100.00;70650.75;5113067;27;20039;-85
2021/12/21 08:49:19;;;;;;;0.20;0.20;;;;;;;-143.85;100.00;70650.75;5116211;27;20467;-85
2021/12/21 08:51:44;;;;;;;0.40;0.40;;;;;;;-143.85;100.00;70650.75;5116184;27;20034;-86
2021/12/21 08:54:11;;;;;;;0.20;0.20;;;;;;;-143.85;100.00;70650.75;5116251;27;20118;-86
2021/12/21 08:56:36;;;;;;;0.30;0.30;;;;;;;-143.85;100.00;70650.75;5116183;27;20527;-85
2021/12/21 08:59:02;;;;;;;0.68;0.68;;;;;;;-143.85;100.00;70650.75;5116637;27;20027;-85
2021/12/21 09:01:27;;;;;;;1.05;1.05;;;;;;;-143.85;100.00;70650.75;5116033;28;20072;-86
2021/12/21 09:03:54;;;;;;;0.75;0.75;;;;;;;-143.85;100.00;70650.75;5116528;27;20065;-86
2021/12/21 09:06:19;;;;;;;0.63;0.63;;;;;;;-143.85;100.00;70650.75;5115732;27;20066;-84
2021/12/21 09:08:44;;;;;;;0.90;0.43;;;;;;;-143.85;100.00;70650.75;5116089;27;20027;-85
2021/12/21 09:11:10;;;;;;;0.70;0.70;;;;;;;-143.85;100.00;70650.75;5115908;27;20031;-85
2021/12/21 09:13:36;;;;;;;0.20;0.20;;;;;;;-143.85;100.00;70650.75;5116131;27;20028;-86
2021/12/21 09:16:01;;;;;;;0.60;0.60;;;;;;;-143.85;100.00;70650.75;5115961;28;20176;-87
2021/12/21 09:18:27;;;;;;;0.65;0.65;;;;;;;-143.85;100.00;70650.75;5115885;28;20471;-88
2021/12/21 09:20:53;;;;;;;0.52;0.52;;;;;;;-143.85;100.00;70650.75;5115487;28;20471;-85
2021/12/21 09:23:18;;;;;;;0.85;0.85;;;;;;;-143.85;100.00;70650.75;5115801;28;20030;-85
2021/12/21 09:25:44;;;;;;;0.52;0.52;;;;;;;-143.85;100.00;70650.75;5115648;28;20031;-84
2021/12/21 09:28:09;;;;;;;1.13;1.13;;;;;;;-143.85;100.00;70650.75;5116006;28;20015;-85
2021/12/21 09:30:35;;;;;;;0.40;0.40;;;;;;;-143.85;100.00;70650.75;5115591;28;20065;-83
2021/12/21 09:33:01;;;;;;;0.20;0.20;;;;;;;-143.85;100.00;70650.75;5150949;27;20023;-84
2021/12/21 09:35:27;;;;;;;0.75;0.75;;;;;;;-143.85;100.00;70650.75;5116323;28;20036;-83
2021/12/21 09:37:54;;;;;;;0.30;0.30;;;;;;;-143.85;100.00;70650.75;5116607;28;20020;-85
2021/12/21 09:40:23;;;;;;;1.00;1.00;;;;;;;-143.85;100.00;70650.75;5115583;28;20031;-86
2021/12/21 09:42:50;;;;;;;0.82;0.82;;;;;;;-143.85;100.00;70650.75;5117006;28;20051;-87
2021/12/21 09:45:17;;;;;;;1.10;0.65;;;;;;;-143.85;100.00;70650.75;5116084;28;20037;-84
2021/12/21 09:47:43;;;;;;;0.20;0.20;;;;;;;-143.85;100.00;70650.75;5116118;28;20047;-85
2021/12/21 09:50:11;;;;;;;0.40;0.40;;;;;;;-143.85;100.00;70650.75;5115428;28;20080;-85
2021/12/21 09:52:37;;;;;;;0.52;0.52;;;;;;;-143.85;100.00;70650.75;5116833;28;20091;-86
2021/12/21 09:55:06;;;;;;;0.28;0.28;;;;;;;-143.85;100.00;70650.75;5115768;28;20024;-83
2021/12/21 09:57:32;;;;;;;1.42;1.33;;;;;;;-143.85;100.00;70650.75;5115880;28;20030;-86
2021/12/21 09:59:58;;;;;;;0.50;0.50;;;;;;;-143.85;100.00;70650.75;5115093;28;20114;-85
2021/12/21 10:02:26;;;;;;;0.38;0.38;;;;;;;-143.85;100.00;70650.75;5116122;28;20058;-82
2021/12/21 10:04:55;;;;;;;0.20;0.20;;;;;;;-143.85;100.00;70650.75;5115403;28;20042;-84
2021/12/21 10:07:22;;;;;;;0.80;0.80;;;;;;;-143.85;100.00;70650.75;5115826;27;20023;-83
2021/12/21 10:09:48;;;;;;;0.50;0.50;;;;;;;-143.85;100.00;70650.75;5119121;27;20037;-83
2021/12/21 10:12:29;;;;;;;1.13;1.13;;;;;;;-143.85;100.00;70650.75;5118890;27;20098;-83
2021/12/21 10:15:07;;;;;;;0.75;0.75;;;;;;;-143.85;100.00;70650.75;5119276;27;20034;-82
2021/12/21 10:17:33;;;;;;;0.90;0.90;;;;;;;-143.85;100.00;70650.75;5119552;27;20483;-83
2021/12/21 10:20:01;;;;;;;0.35;0.35;;;;;;;-143.85;100.00;70650.75;5119109;27;20027;-84
2021/12/21 10:22:27;;;;;;;0.32;0.32;;;;;;;-143.85;100.00;70650.75;5119796;27;20035;-85
2021/12/21 10:24:53;;;;;;;0.30;0.30;;;;;;;-143.85;100.00;70650.75;5118715;27;20023;-87
2021/12/21 10:27:21;;;;;;;0.20;0.20;;;;;;;-143.85;100.00;70650.75;5118612;27;20023;-83
2021/12/21 10:29:57;;;;;;;0.30;0.30;;;;;;;-143.85;100.00;70650.75;5118831;27;20057;-85
2021/12/21 10:32:29;;;;;;;0.40;0.40;;;;;;;-143.85;100.00;70650.75;5120120;27;20130;-83
2021/12/21 10:34:59;;;;;;;0.30;0.30;;;;;;;-143.85;100.00;70650.75;5119976;27;20028;-85
2021/12/21 10:37:34;;;;;;;0.20;0.20;;;;;;;-143.85;100.00;70650.75;5118534;27;20023;-84
2021/12/21 10:40:17;;;;;;;0.22;0.22;;;;;;;-143.85;100.00;70650.75;5118973;27;20019;-83
2021/12/21 10:42:48;;;;;;;0.20;0.20;;;;;;;-143.85;100.00;70650.75;5119924;27;20054;-84
2021/12/21 10:45:15;;;;;;;0.20;0.20;;;;;;;-143.85;100.00;70650.75;5119306;27;20019;-85
2021/12/21 10:47:43;;;;;;;0.20;0.20;;;;;;;-143.85;100.00;70650.75;5118225;27;20114;-85
2021/12/21 10:50:09;;;;;;;0.20;0.20;;;;;;;-143.85;100.00;70650.75;5118939;27;20031;-82
2021/12/21 10:52:34;;;;;;;0.20;0.20;;;;;;;-143.85;100.00;70650.75;5119372;27;20034;-84
2021/12/21 10:55:00;;;;;;;0.52;0.52;;;;;;;-143.85;100.00;70650.75;5118156;27;20023;-84
2021/12/21 10:57:31;;;;;;;0.52;0.52;;;;;;;-143.85;100.00;70650.75;5119363;27;20145;-85
2021/12/21 10:59:59;;;;;;;0.45;0.45;;;;;;;-143.85;100.00;70650.75;5120291;27;20205;-81
2021/12/21 11:02:32;;;;;;;0.28;0.28;;;;;;;-143.85;100.00;70650.75;5118740;27;20034;-82
2021/12/21 11:05:07;;;;;;;0.20;0.20;;;;;;;-143.85;100.00;70650.75;5119264;27;20188;-83
2021/12/21 11:07:43;;;;;;;0.10;0.10;;;;;;;-143.85;100.00;70650.75;5117780;27;20053;-75
2021/12/21 11:10:16;;;;;;;0.30;0.30;;;;;;;-143.85;100.00;70650.75;5117947;27;20505;-83
2021/12/21 11:12:51;;;;;;;0.20;0.20;;;;;;;-143.85;100.00;70650.75;5118783;27;20035;-84
2021/12/21 11:15:28;;;;;;;0.25;0.25;;;;;;;-143.85;100.00;70650.75;5117728;27;20027;-80
2021/12/21 11:17:58;;;;;;;0.20;0.20;;;;;;;-143.85;100.00;70650.75;5117879;27;20031;-83
2021/12/21 11:20:24;;;;;;;0.20;0.20;;;;;;;-143.85;100.00;70650.75;5117059;27;20027;-82
2021/12/21 11:22:51;;;;;;;0.20;0.20;;;;;;;-143.85;100.00;70650.75;5117768;27;20501;-84
2021/12/21 11:25:17;;;;;;;1.92;1.83;;;;;;;-143.85;100.00;70650.75;5119481;27;20058;-83
2021/12/21 11:27:46;;;;;;;0.20;0.20;;;;;;;-143.85;100.00;70650.75;5117720;27;20031;-81
2021/12/21 11:30:15;;;;;;;0.68;0.35;;;;;;;-143.85;100.00;70650.75;5119828;27;20536;-84
2021/12/21 11:32:48;;;;;;;0.20;0.20;;;;;;;-143.85;100.00;70650.75;5120632;27;20043;-83
2021/12/21 11:37:47;;;;;;;0.20;0.20;;;;;;;-143.85;100.00;70650.75;5139111;27;20027;-84
2021/12/21 11:40:17;;;;;;;1.30;0.95;;;;;;;-143.85;100.00;70650.75;5120082;27;20023;-86
2021/12/21 11:42:51;;;;;;;0.20;0.20;;;;;;;-143.85;100.00;70650.75;5118366;27;20023;-85
2021/12/21 11:45:33;;;;;;;0.38;0.38;;;;;;;-143.85;100.00;70650.75;5118398;27;20049;-86
2021/12/21 11:48:11;;;;;;;0.30;0.30;;;;;;;-143.85;100.00;70650.75;5113930;28;20047;-84
2021/12/21 11:50:40;;;;;;;0.20;0.20;;;;;;;-143.85;100.00;70650.75;5113988;28;20110;-87
2021/12/21 11:53:08;;;;;;;0.20;0.20;;;;;;;-143.85;100.00;70650.75;5114536;28;20028;-84
2021/12/21 11:55:38;;;;;;;0.20;0.20;;;;;;;-143.85;100.00;70650.75;5115139;28;20059;-86
2021/12/21 11:58:21;;;;;;;0.63;0.63;;;;;;;-143.85;100.00;70650.75;5116086;28;20020;-86
2021/12/21 12:00:52;;;;;;;0.20;0.20;;;;;;;-143.85;100.00;70650.75;5116559;28;20054;-86
2021/12/21 12:03:22;;;;;;;0.30;0.30;;;;;;;-143.85;100.00;70650.75;5115537;28;20118;-85
2021/12/21 12:06:01;;;;;;;0.20;0.20;;;;;;;-143.85;100.00;70650.75;5115742;28;20031;-86
2021/12/21 12:08:41;;;;;;;0.30;0.30;;;;;;;-143.85;100.00;70650.75;5117252;28;20131;-83